Time;durP1;ratioP1;P1;durP2;ratioP2;P2;SDS_P1;SDS_P2;PMS_P1;PMS_P2;Temp;Humidity;BMP_temperature;BMP_pressure;BME280_temperature;BME280_humidity;BME280_pressure;Samples;Min_cycle;Max_cycle;Signal;HPM_P1;HPM_P2
2022/05/31 00:01:48;;;;;;;22.67;14.65;;;;;;;10.90;74.58;100652.06;4997927;28;20109;-83
2022/05/31 00:04:15;;;;;;;23.20;16.05;;;;;;;10.93;72.80;100646.50;5000247;28;20042;-84
2022/05/31 00:06:42;;;;;;;24.60;15.63;;;;;;;10.95;72.63;100649.78;4999959;28;20074;-83
2022/05/31 00:09:10;;;;;;;24.27;15.65;;;;;;;10.90;73.04;100641.59;4999903;28;20058;-83
2022/05/31 00:11:37;;;;;;;23.67;15.65;;;;;;;10.90;72.75;100641.59;5017903;28;20081;-83
2022/05/31 00:14:04;;;;;;;19.73;14.10;;;;;;;10.93;73.08;100651.75;5017893;28;20081;-83
2022/05/31 00:16:31;;;;;;;22.02;14.70;;;;;;;10.90;72.58;100641.59;5001031;28;20054;-83
2022/05/31 00:18:58;;;;;;;19.73;13.88;;;;;;;10.91;72.88;100639.78;4999854;28;20129;-81
2022/05/31 00:21:33;;;;;;;18.85;12.80;;;;;;;10.87;73.27;100647.13;4999500;28;20137;-81
2022/05/31 00:23:59;;;;;;;21.05;12.23;;;;;;;10.81;73.22;100642.56;5000331;28;20049;-81
2022/05/31 00:26:28;;;;;;;16.35;11.60;;;;;;;10.80;73.90;100640.09;5000962;28;20110;-82
2022/05/31 00:28:54;;;;;;;17.60;11.02;;;;;;;10.75;73.58;100643.19;4999490;28;20085;-82
2022/05/31 00:31:21;;;;;;;15.63;10.43;;;;;;;10.75;74.11;100644.97;4998415;28;20140;-82
2022/05/31 00:33:47;;;;;;;15.55;10.88;;;;;;;10.70;73.46;100636.78;4999681;28;20069;-80
2022/05/31 00:36:14;;;;;;;13.02;10.45;;;;;;;10.75;73.47;100637.13;4998443;28;20077;-82
2022/05/31 00:38:41;;;;;;;14.60;10.30;;;;;;;10.73;73.26;100634.66;4998388;28;20074;-81
2022/05/31 00:41:24;;;;;;;12.85;10.50;;;;;;;10.67;73.32;100629.22;5000075;28;20114;-80
2022/05/31 00:43:52;;;;;;;;;;;;;;;10.69;73.22;100635.13;5008264;28;20050;-81
2022/05/31 00:46:21;;;;;;;13.77;10.55;;;;;;;10.65;73.57;100632.00;5006187;28;19928;-80
2022/05/31 00:48:51;;;;;;;18.33;10.52;;;;;;;10.73;73.29;100639.91;5007165;28;20110;-79
2022/05/31 00:51:20;;;;;;;16.52;10.00;;;;;;;10.74;73.52;100633.69;4999910;28;20054;-80
2022/05/31 00:53:52;;;;;;;14.65;10.32;;;;;;;10.80;72.76;100635.69;4997192;28;20046;-80
2022/05/31 00:56:21;;;;;;;14.23;10.07;;;;;;;10.76;73.56;100636.97;4998486;28;20057;-80
2022/05/31 00:58:54;;;;;;;17.35;10.68;;;;;;;10.70;73.52;100632.34;4999805;28;20185;-80
2022/05/31 01:01:21;;;;;;;14.65;9.52;;;;;;;10.69;73.46;100635.94;4999908;28;20074;-80
2022/05/31 01:03:48;;;;;;;13.05;10.60;;;;;;;10.63;73.83;100632.16;4999115;28;20052;-81
2022/05/31 01:06:15;;;;;;;14.75;10.75;;;;;;;10.57;74.40;100634.56;4998644;28;20485;-82
2022/05/31 01:08:45;;;;;;;15.73;10.40;;;;;;;10.59;74.65;100627.38;4997557;28;20050;-81
2022/05/31 01:11:14;;;;;;;14.68;9.80;;;;;;;10.56;75.35;100623.28;4998215;28;20046;-78
2022/05/31 01:13:43;;;;;;;13.18;9.90;;;;;;;10.52;75.34;100626.38;4998323;28;20113;-80
2022/05/31 01:16:14;;;;;;;15.80;10.15;;;;;;;10.48;77.21;100625.03;4999081;28;20070;-81
2022/05/31 01:18:40;;;;;;;12.88;10.00;;;;;;;10.51;76.53;100622.94;5000658;28;20477;-80
2022/05/31 01:21:09;;;;;;;13.68;9.63;;;;;;;10.54;76.35;100613.94;5003256;28;20137;-80
2022/05/31 01:23:41;;;;;;;15.52;10.23;;;;;;;10.45;75.56;100604.41;5003162;28;20101;-80
2022/05/31 01:26:19;;;;;;;12.73;9.75;;;;;;;10.41;75.96;100616.16;5003988;28;20054;-82
2022/05/31 01:28:57;;;;;;;11.30;9.25;;;;;;;10.41;75.47;100618.78;5002443;28;20054;-81
2022/05/31 01:31:30;;;;;;;10.82;9.00;;;;;;;10.39;74.85;100607.69;5002667;28;20050;-84
2022/05/31 01:34:09;;;;;;;9.90;8.77;;;;;;;10.36;74.31;100602.75;5002632;28;20056;-80
2022/05/31 01:36:41;;;;;;;12.27;9.23;;;;;;;10.35;74.46;100615.00;5002654;28;20058;-83
2022/05/31 01:39:12;;;;;;;11.20;9.00;;;;;;;10.37;74.19;100612.25;5003315;28;20110;-79
2022/05/31 01:41:45;;;;;;;11.77;8.52;;;;;;;10.38;74.06;100611.28;5003049;28;20114;-81
2022/05/31 01:44:13;;;;;;;;;;;;;;;10.36;74.36;100608.81;5004550;28;20053;-80
2022/05/31 01:46:41;;;;;;;10.02;8.07;;;;;;;10.33;73.77;100603.06;5005065;28;19980;-80
2022/05/31 01:49:10;;;;;;;11.05;8.73;;;;;;;10.32;73.91;100604.84;5002001;28;20093;-79
2022/05/31 01:51:41;;;;;;;11.30;7.88;;;;;;;10.32;73.87;100606.66;5000419;28;20062;-80
2022/05/31 01:54:09;;;;;;;9.75;7.40;;;;;;;10.30;74.06;100599.78;5000760;28;20058;-80
2022/05/31 01:56:37;;;;;;;10.40;8.18;;;;;;;10.32;73.92;100604.03;4999250;28;20439;-80
2022/05/31 01:59:04;;;;;;;10.52;7.85;;;;;;;10.30;73.75;100601.56;5000000;28;20110;-81
2022/05/31 02:01:32;;;;;;;9.75;8.18;;;;;;;10.42;73.41;100604.72;4999316;28;20136;-79
2022/05/31 02:04:00;;;;;;;10.05;7.60;;;;;;;10.37;73.64;100601.78;4999965;28;20145;-79
2022/05/31 02:06:30;;;;;;;10.68;7.70;;;;;;;10.33;73.56;100600.44;5000307;28;20613;-79
2022/05/31 02:08:59;;;;;;;12.77;7.35;;;;;;;10.28;73.31;100598.28;5000744;28;20082;-79
2022/05/31 02:11:25;;;;;;;10.25;7.22;;;;;;;10.32;73.18;100594.41;5000887;28;20046;-81
2022/05/31 02:13:53;;;;;;;15.75;8.30;;;;;;;10.34;73.00;100586.41;5000638;28;20142;-82
2022/05/31 02:16:19;;;;;;;8.88;6.80;;;;;;;10.30;72.74;100586.72;5000776;28;20088;-82
2022/05/31 02:21:36;;;;;;;11.65;7.72;;;;;;;10.26;72.90;100580.16;5000981;28;20177;-82
2022/05/31 02:24:07;;;;;;;10.80;7.03;;;;;;;10.29;72.90;100587.69;5000854;28;20057;-83
2022/05/31 02:26:34;;;;;;;9.27;7.53;;;;;;;10.24;73.03;100589.94;5000856;28;20054;-82
2022/05/31 02:29:00;;;;;;;12.52;7.13;;;;;;;10.25;73.13;100585.53;5001376;28;20114;-81
2022/05/31 02:31:27;;;;;;;9.95;7.60;;;;;;;10.27;72.83;100580.97;5000480;28;20081;-82
2022/05/31 02:33:54;;;;;;;9.73;7.03;;;;;;;10.30;72.70;100584.09;5001192;28;20093;-81
2022/05/31 02:36:21;;;;;;;11.82;7.00;;;;;;;10.39;72.18;100581.53;5000726;28;20093;-79
2022/05/31 02:38:47;;;;;;;9.02;6.40;;;;;;;10.36;72.26;100580.03;5001197;28;20149;-83
2022/05/31 02:41:16;;;;;;;9.80;6.47;;;;;;;10.34;71.41;100583.78;5001603;28;20163;-80
2022/05/31 02:43:42;;;;;;;13.95;6.63;;;;;;;10.35;71.96;100582.81;5002113;28;20050;-79
2022/05/31 02:46:09;;;;;;;13.85;7.05;;;;;;;10.33;71.92;100579.53;5002295;28;20110;-80
2022/05/31 02:48:36;;;;;;;11.70;6.57;;;;;;;10.32;72.29;100588.34;5003406;28;20051;-81
2022/05/31 02:51:02;;;;;;;7.60;6.35;;;;;;;10.36;72.81;100587.06;5005792;28;20531;-81
2022/05/31 02:53:29;;;;;;;10.40;6.55;;;;;;;10.35;73.33;100582.81;5006069;28;20061;-82
2022/05/31 02:55:56;;;;;;;8.20;6.32;;;;;;;10.23;72.88;100564.75;5005242;28;20100;-80
2022/05/31 02:58:24;;;;;;;9.88;6.10;;;;;;;10.34;72.46;100584.59;5003281;28;20078;-83
2022/05/31 03:00:51;;;;;;;8.73;6.35;;;;;;;10.28;72.98;100578.19;5001993;28;20085;-82
2022/05/31 03:03:18;;;;;;;11.57;5.97;;;;;;;10.26;73.10;100566.25;5002816;28;20129;-83
2022/05/31 03:05:44;;;;;;;10.73;6.70;;;;;;;10.27;73.19;100573.94;5002980;28;20106;-82
2022/05/31 03:08:12;;;;;;;9.88;6.55;;;;;;;10.23;72.99;100570.00;5002902;28;20110;-81
2022/05/31 03:10:44;;;;;;;10.35;6.32;;;;;;;10.20;73.07;100570.28;5004112;28;20051;-80
2022/05/31 03:13:12;;;;;;;8.73;6.50;;;;;;;10.17;73.58;100567.13;5007143;28;20065;-80
2022/05/31 03:15:40;;;;;;;13.80;7.50;;;;;;;10.21;73.14;100571.94;5000960;28;20081;-80
2022/05/31 03:18:13;;;;;;;8.20;6.25;;;;;;;10.20;73.11;100575.53;4999486;28;20141;-79
2022/05/31 03:20:45;;;;;;;8.95;6.70;;;;;;;10.16;73.09;100568.94;4999213;28;20458;-82
2022/05/31 03:23:15;;;;;;;8.77;6.47;;;;;;;10.16;73.26;100576.78;5000001;28;20082;-81
2022/05/31 03:25:45;;;;;;;7.32;5.90;;;;;;;10.13;73.58;100564.00;4998716;28;20057;-82
2022/05/31 03:28:12;;;;;;;8.50;6.50;;;;;;;10.14;73.40;100568.25;4999637;28;20065;-81
2022/05/31 03:30:40;;;;;;;8.07;6.25;;;;;;;10.15;73.29;100561.25;5000292;28;20053;-82
2022/05/31 03:33:10;;;;;;;9.32;6.47;;;;;;;10.13;73.74;100564.00;5000434;28;20133;-80
2022/05/31 03:35:37;;;;;;;11.27;6.50;;;;;;;10.14;73.16;100549.97;5001321;28;20051;-80
2022/05/31 03:38:04;;;;;;;9.52;5.82;;;;;;;10.16;72.86;100557.66;5000403;28;20420;-80
2022/05/31 03:43:31;;;;;;;10.48;6.25;;;;;;;10.27;72.54;100560.88;4938690;29;20141;-81
2022/05/31 03:46:00;;;;;;;11.88;6.30;;;;;;;10.28;72.77;100559.88;4939244;29;20072;-80
2022/05/31 03:48:28;;;;;;;10.20;6.47;;;;;;;10.30;71.80;100560.56;4965645;28;20058;-79
2022/05/31 03:50:59;;;;;;;11.15;6.07;;;;;;;10.32;72.04;100559.56;4999325;28;20053;-80
2022/05/31 03:53:26;;;;;;;9.02;5.90;;;;;;;10.32;72.07;100556.97;4998101;28;20325;-78
2022/05/31 03:55:52;;;;;;;9.90;5.95;;;;;;;10.36;71.85;100563.53;4998406;28;20046;-80
2022/05/31 03:58:19;;;;;;;8.15;5.60;;;;;;;10.37;72.00;100565.16;4997756;28;20111;-81
2022/05/31 04:00:46;;;;;;;7.30;5.78;;;;;;;10.38;71.86;100558.97;4998825;28;20117;-80
2022/05/31 04:03:14;;;;;;;7.88;5.88;;;;;;;10.44;72.70;100566.16;4999759;28;20046;-81
2022/05/31 04:05:41;;;;;;;9.00;6.40;;;;;;;10.50;72.61;100573.38;4999577;28;20042;-82
2022/05/31 04:08:11;;;;;;;10.43;6.53;;;;;;;10.54;73.63;100574.69;4999589;28;20081;-81
2022/05/31 04:10:38;;;;;;;10.32;5.85;;;;;;;10.55;73.65;100574.53;4998879;28;20054;-81
2022/05/31 04:13:05;;;;;;;8.73;6.00;;;;;;;10.56;73.23;100577.97;4999228;28;20144;-81
2022/05/31 04:15:33;;;;;;;9.60;6.03;;;;;;;10.57;72.44;100577.00;4999368;28;20480;-80
2022/05/31 04:17:59;;;;;;;8.65;6.10;;;;;;;10.49;72.15;100574.34;4999018;28;20111;-84
2022/05/31 04:20:28;;;;;;;10.88;5.95;;;;;;;10.51;72.29;100569.78;4999091;28;20125;-81
2022/05/31 04:23:57;;;;;;;9.65;5.45;;;;;;;10.44;71.74;100561.75;4999116;28;20046;-81
2022/05/31 04:25:42;;;;;;;8.52;5.70;;;;;;;10.37;71.63;100550.28;4998462;28;20417;-81
2022/05/31 04:28:09;;;;;;;7.82;5.43;;;;;;;10.42;70.68;100552.41;4999343;28;20148;-80
2022/05/31 04:30:36;;;;;;;8.15;5.95;;;;;;;10.42;71.32;100539.31;4999067;28;20054;-80
2022/05/31 04:33:02;;;;;;;12.65;5.68;;;;;;;10.42;71.45;100547.19;4998656;28;20137;-82
2022/05/31 04:35:30;;;;;;;10.05;5.65;;;;;;;10.43;72.10;100548.81;4998630;28;20137;-82
2022/05/31 04:37:57;;;;;;;10.05;5.43;;;;;;;10.41;72.99;100548.16;4998251;28;20133;-78
2022/05/31 04:40:24;;;;;;;10.15;5.72;;;;;;;10.38;74.19;100548.50;4998716;28;20081;-80
2022/05/31 04:42:51;;;;;;;7.45;5.82;;;;;;;10.40;74.68;100564.84;4998123;28;20085;-83
2022/05/31 04:45:18;;;;;;;7.57;5.55;;;;;;;10.46;76.30;100562.41;4998154;28;20088;-82
2022/05/31 04:47:45;;;;;;;8.95;5.40;;;;;;;10.34;74.74;100560.25;4998133;28;20110;-80
2022/05/31 04:50:11;;;;;;;7.30;5.50;;;;;;;10.32;75.95;100551.72;5000450;28;20465;-84
2022/05/31 04:52:39;;;;;;;9.05;6.18;;;;;;;10.28;76.55;100548.59;5003123;28;20046;-79
2022/05/31 04:55:06;;;;;;;8.73;6.00;;;;;;;10.27;76.10;100554.81;5000982;28;20072;-83
2022/05/31 04:57:35;;;;;;;11.43;5.53;;;;;;;10.30;77.53;100552.72;4998843;28;20046;-82
2022/05/31 05:00:02;;;;;;;8.63;5.78;;;;;;;10.32;77.86;100543.88;4998335;28;20061;-83
2022/05/31 05:02:29;;;;;;;10.95;6.18;;;;;;;10.32;78.00;100541.28;5000588;28;20432;-82
2022/05/31 05:04:55;;;;;;;11.05;5.97;;;;;;;10.40;78.58;100543.94;4999253;28;20245;-84
2022/05/31 05:07:22;;;;;;;12.35;6.50;;;;;;;10.46;78.58;100532.81;4999266;28;20113;-83
2022/05/31 05:09:50;;;;;;;8.63;5.78;;;;;;;10.56;77.02;100539.56;5000143;28;20129;-84
2022/05/31 05:12:16;;;;;;;14.77;5.82;;;;;;;10.61;75.76;100542.53;5000029;28;20078;-85
2022/05/31 05:21:21;;;;;;;8.27;5.35;;;;;;;10.81;75.55;100531.78;4906226;28;20142;-81
2022/05/31 05:36:09;;;;;;;9.00;5.88;;;;;;;11.27;78.12;100538.25;4918240;29;20056;-82
2022/05/31 05:38:42;;;;;;;8.52;6.22;;;;;;;11.29;79.79;100546.78;4917868;29;20204;-81
2022/05/31 05:41:09;;;;;;;9.60;6.30;;;;;;;11.21;77.27;100560.66;4978328;28;20117;-81
2022/05/31 05:43:55;;;;;;;8.77;6.18;;;;;;;11.00;77.61;100551.63;4997161;28;20065;-80
2022/05/31 05:49:44;;;;;;;12.25;7.60;;;;;;;11.13;79.97;100567.69;4978536;28;20054;-78
2022/05/31 05:52:17;;;;;;;9.07;6.38;;;;;;;11.18;78.73;100545.28;4997320;28;20078;-82
2022/05/31 05:54:44;;;;;;;12.63;7.03;;;;;;;11.33;79.50;100553.31;5005235;28;20062;-80
2022/05/31 05:57:13;;;;;;;11.55;6.47;;;;;;;11.36;79.52;100550.34;4999713;28;20091;-82
2022/05/31 05:59:40;;;;;;;9.35;6.05;;;;;;;11.43;78.73;100559.19;4999086;28;20077;-82
2022/05/31 06:02:19;;;;;;;7.70;5.88;;;;;;;11.59;78.23;100563.63;4997711;28;20066;-81
2022/05/31 06:04:49;;;;;;;13.15;5.65;;;;;;;11.56;75.57;100562.16;4999067;28;20476;-80
2022/05/31 06:11:00;;;;;;;8.50;6.03;;;;;;;12.17;73.82;100566.06;4998020;28;20101;-81
2022/05/31 06:13:36;;;;;;;9.40;5.68;;;;;;;12.48;71.69;100554.78;4998946;28;20097;-82
2022/05/31 06:16:26;;;;;;;7.93;5.70;;;;;;;12.60;69.86;100542.94;4999504;28;20054;-83
2022/05/31 06:22:15;;;;;;;9.60;6.00;;;;;;;12.33;70.35;100549.41;4979243;28;20505;-81
2022/05/31 06:24:48;;;;;;;8.35;4.97;;;;;;;12.13;69.59;100567.38;4999628;28;20066;-82
2022/05/31 06:27:28;;;;;;;11.48;5.30;;;;;;;12.32;68.99;100571.41;4999785;28;20413;-82
2022/05/31 06:29:58;;;;;;;8.65;5.25;;;;;;;12.60;68.21;100577.06;5000328;28;20046;-84
2022/05/31 06:32:30;;;;;;;11.70;5.68;;;;;;;12.63;67.51;100571.47;5000164;28;20058;-82
2022/05/31 06:35:12;;;;;;;18.20;6.10;;;;;;;12.73;73.37;100587.84;5000028;28;20108;-82
2022/05/31 06:37:51;;;;;;;12.70;5.85;;;;;;;12.56;72.63;100581.00;5024233;28;20055;-82
2022/05/31 06:43:12;;;;;;;8.73;5.45;;;;;;;13.56;69.28;100574.88;5010555;28;20050;-82
2022/05/31 06:45:49;;;;;;;6.55;5.30;;;;;;;15.23;61.70;100574.28;5018003;28;20057;-83
2022/05/31 06:48:23;;;;;;;11.23;5.10;;;;;;;15.18;59.68;100571.38;5017187;28;20050;-82
2022/05/31 06:51:03;;;;;;;10.82;5.78;;;;;;;16.42;58.20;100580.50;5017839;28;20058;-82
2022/05/31 06:56:51;;;;;;;7.28;4.80;;;;;;;19.71;46.71;100578.50;5018903;28;20551;-83
2022/05/31 06:59:23;;;;;;;5.68;4.38;;;;;;;20.44;44.96;100567.97;5019832;28;20463;-83
2022/05/31 07:01:51;;;;;;;;;;;;;;;19.94;43.47;100576.03;5020537;28;20053;-82
2022/05/31 07:04:22;;;;;;;9.68;4.30;;;;;;;16.46;50.28;100558.78;5018549;28;19967;-82
2022/05/31 07:07:09;;;;;;;10.82;4.68;;;;;;;15.96;53.26;100557.28;5021365;28;20046;-83
2022/05/31 07:09:36;;;;;;;7.38;5.00;;;;;;;15.25;56.20;100561.72;5021481;28;20261;-80
2022/05/31 07:12:08;;;;;;;7.63;5.25;;;;;;;14.99;57.81;100549.13;5015405;28;20453;-81
2022/05/31 07:14:34;;;;;;;11.18;5.32;;;;;;;16.10;55.63;100558.16;5021237;28;20412;-80
2022/05/31 07:17:01;;;;;;;10.00;5.25;;;;;;;17.23;52.53;100550.50;5022158;28;20125;-80
2022/05/31 07:19:31;;;;;;;8.02;5.03;;;;;;;18.22;48.93;100549.66;5018022;28;20050;-81
2022/05/31 07:22:00;;;;;;;10.38;4.57;;;;;;;16.12;53.20;100551.69;5022851;28;20068;-79
2022/05/31 07:24:27;;;;;;;10.68;5.13;;;;;;;15.63;56.19;100545.66;5009479;28;20085;-80
2022/05/31 07:26:54;;;;;;;8.77;5.03;;;;;;;15.73;55.65;100540.88;5007994;28;20037;-80
2022/05/31 07:29:22;;;;;;;6.10;4.68;;;;;;;15.24;56.94;100545.09;5017456;28;20472;-81
2022/05/31 07:31:49;;;;;;;8.05;5.05;;;;;;;14.83;58.10;100552.78;5016584;28;20066;-81
2022/05/31 07:34:40;;;;;;;7.43;4.80;;;;;;;14.78;58.39;100528.81;5017076;28;20089;-80
2022/05/31 07:37:26;;;;;;;8.68;4.55;;;;;;;14.57;59.39;100555.13;4990259;28;20112;-79
2022/05/31 07:42:45;;;;;;;8.88;4.72;;;;;;;14.07;61.38;100543.47;4956947;29;20366;-79
2022/05/31 07:45:39;;;;;;;7.97;4.85;;;;;;;13.99;63.57;100545.38;4956575;29;20506;-81
2022/05/31 07:48:34;;;;;;;10.52;6.18;;;;;;;13.78;66.47;100548.69;4956059;29;20044;-80
2022/05/31 08:00:58;;;;;;;11.15;5.20;;;;;;;12.99;68.83;100511.34;4956728;29;20601;-81
2022/05/31 08:03:26;;;;;;;10.23;5.32;;;;;;;13.08;69.23;100514.75;4954618;23;20124;-80
2022/05/31 08:09:38;;;;;;;9.50;5.40;;;;;;;13.31;67.32;100528.72;4931607;28;20424;-80
2022/05/31 08:19:17;;;;;;;7.75;4.65;;;;;;;13.59;66.52;100524.56;4951461;28;20051;-83
2022/05/31 08:22:31;;;;;;;8.40;4.80;;;;;;;13.70;63.74;100536.47;4960146;28;20051;-84
2022/05/31 08:25:58;;;;;;;7.75;4.65;;;;;;;13.61;65.86;100519.94;4959521;29;20114;-83
2022/05/31 08:31:58;;;;;;;9.13;4.38;;;;;;;13.40;64.31;100522.41;4948502;28;20106;-84
2022/05/31 08:34:29;;;;;;;9.55;4.57;;;;;;;13.53;64.64;100546.28;4965447;29;20094;-85
2022/05/31 08:36:58;;;;;;;7.38;4.65;;;;;;;13.58;64.30;100543.97;4964640;29;20047;-83
2022/05/31 08:39:28;;;;;;;8.43;4.82;;;;;;;13.59;62.92;100518.47;4963963;29;20074;-83
2022/05/31 08:42:12;;;;;;;7.43;4.57;;;;;;;13.76;64.40;100529.66;4963628;29;20079;-82
2022/05/31 08:45:10;;;;;;;12.15;5.07;;;;;;;13.63;63.25;100525.03;4962886;29;20070;-83
2022/05/31 08:47:47;;;;;;;6.97;4.55;;;;;;;13.60;64.64;100536.72;4962502;28;20055;-84
2022/05/31 08:53:21;;;;;;;7.18;5.20;;;;;;;13.70;65.49;100556.69;4961599;29;20058;-85
2022/05/31 08:58:41;;;;;;;6.93;4.55;;;;;;;13.74;66.63;100557.94;4963774;29;20180;-84
2022/05/31 09:01:13;;;;;;;11.45;5.15;;;;;;;13.49;67.61;100546.81;4965300;29;20520;-84
2022/05/31 09:05:04;;;;;;;;;;;;;;;;;;;;;
2022/05/31 17:16:41;;;;;;;5.15;3.92;;;;;;;18.00;48.38;100439.72;5089485;23;20061;-83
2022/05/31 17:19:23;;;;;;;5.78;4.13;;;;;;;17.82;47.34;100419.25;5002578;28;20051;-82
2022/05/31 17:22:06;;;;;;;6.78;3.85;;;;;;;17.87;47.70;100424.72;4990481;28;20050;-82
2022/05/31 17:28:20;;;;;;;7.97;4.20;;;;;;;18.01;45.99;100449.31;4970506;28;19926;-82
2022/05/31 17:30:49;;;;;;;6.32;4.72;;;;;;;17.80;46.29;100427.38;4979286;28;20130;-83
2022/05/31 17:33:24;;;;;;;6.05;3.67;;;;;;;17.90;46.74;100445.50;4977912;28;20055;-84
2022/05/31 17:35:59;;;;;;;6.22;3.92;;;;;;;17.57;46.92;100430.44;4978330;28;20102;-84
2022/05/31 17:38:33;;;;;;;4.57;4.00;;;;;;;17.67;46.57;100429.25;4978358;28;20046;-84
2022/05/31 17:41:02;;;;;;;5.40;3.95;;;;;;;17.64;47.69;100437.56;4978984;28;20077;-83
2022/05/31 17:43:33;;;;;;;4.55;3.70;;;;;;;17.58;47.51;100441.84;4977965;28;20066;-84
2022/05/31 17:46:02;;;;;;;6.35;3.90;;;;;;;17.54;47.80;100422.94;4977492;28;20437;-84
2022/05/31 17:48:31;;;;;;;6.60;4.68;;;;;;;17.63;46.69;100455.28;4978639;28;20078;-85
2022/05/31 17:50:58;;;;;;;5.57;4.57;;;;;;;17.37;47.46;100424.41;4979396;28;20055;-84
2022/05/31 17:53:24;;;;;;;5.97;4.75;;;;;;;17.53;47.28;100452.22;4978721;28;20063;-84
2022/05/31 17:55:51;;;;;;;10.38;5.20;;;;;;;17.50;47.29;100447.34;4979668;28;20050;-84
2022/05/31 17:58:18;;;;;;;6.53;4.90;;;;;;;17.43;46.57;100443.94;4978914;28;20232;-84
2022/05/31 18:00:46;;;;;;;8.20;5.53;;;;;;;17.53;47.12;100458.34;4979625;28;20054;-84
2022/05/31 18:03:13;;;;;;;8.20;4.90;;;;;;;17.43;47.09;100457.97;4985011;28;20057;-84
2022/05/31 18:05:42;;;;;;;6.38;4.47;;;;;;;17.41;46.90;100438.84;5004971;28;20068;-84
2022/05/31 18:08:16;;;;;;;7.70;4.72;;;;;;;17.61;47.01;100459.97;5001439;28;20042;-84
2022/05/31 18:10:45;;;;;;;8.63;4.95;;;;;;;17.39;47.21;100446.16;5001842;28;20118;-84
2022/05/31 18:13:14;;;;;;;7.57;4.68;;;;;;;17.52;46.91;100464.66;5002276;28;20081;-84
2022/05/31 18:15:41;;;;;;;7.93;4.32;;;;;;;17.56;47.73;100460.56;5002064;28;20061;-83
2022/05/31 18:18:09;;;;;;;7.50;4.70;;;;;;;17.39;47.01;100469.97;5002599;28;20527;-83
2022/05/31 18:20:37;;;;;;;6.95;4.88;;;;;;;17.48;47.78;100468.75;5003139;28;20126;-82
2022/05/31 18:23:04;;;;;;;6.78;4.65;;;;;;;17.53;47.42;100466.28;5003253;28;20054;-83
2022/05/31 18:25:31;;;;;;;8.05;4.60;;;;;;;17.54;48.27;100461.78;5004544;28;20089;-84
2022/05/31 18:33:57;;;;;;;8.07;5.18;;;;;;;17.48;48.57;100454.72;5004236;28;20481;-82
2022/05/31 18:42:56;;;;;;;8.88;4.78;;;;;;;17.42;48.29;100474.84;4982526;28;20053;-82
2022/05/31 18:45:23;;;;;;;6.32;4.63;;;;;;;17.54;48.61;100494.34;5010181;23;20105;-82
2022/05/31 18:47:49;;;;;;;7.10;4.32;;;;;;;17.45;49.85;100506.19;5001472;28;20105;-80
2022/05/31 18:50:18;;;;;;;7.30;4.70;;;;;;;17.35;50.00;100504.97;5004287;28;20050;-81
2022/05/31 18:52:45;;;;;;;11.95;5.32;;;;;;;17.21;52.05;100514.72;5005022;28;20085;-81
2022/05/31 18:55:13;;;;;;;9.35;4.90;;;;;;;17.11;54.31;100535.44;5018121;28;20050;-82
2022/05/31 18:57:47;;;;;;;8.20;4.70;;;;;;;16.84;58.02;100577.66;5022977;28;20522;-82
2022/05/31 19:00:15;;;;;;;8.20;4.28;;;;;;;16.09;60.23;100567.91;5022811;28;20157;-83
2022/05/31 19:02:43;;;;;;;8.60;4.70;;;;;;;15.64;66.78;100565.75;5022753;28;20485;-82
2022/05/31 19:05:19;;;;;;;8.13;4.88;;;;;;;15.26;70.73;100563.34;5022253;28;20062;-83
2022/05/31 19:07:47;;;;;;;8.25;4.78;;;;;;;15.15;70.00;100543.59;5022298;28;20066;-84
2022/05/31 19:10:18;;;;;;;2.90;2.60;;;;;;;14.82;61.18;100495.00;5022651;28;20049;-83
2022/05/31 19:12:48;;;;;;;4.47;3.60;;;;;;;14.66;64.47;100480.25;5021000;28;20428;-83
2022/05/31 19:15:22;;;;;;;3.90;3.30;;;;;;;14.71;65.46;100504.22;5022376;28;20053;-84
2022/05/31 19:17:54;;;;;;;5.28;2.90;;;;;;;14.65;66.05;100519.97;5021992;28;20494;-84
2022/05/31 19:20:21;;;;;;;5.55;3.42;;;;;;;14.59;66.15;100510.97;5020315;28;20076;-83
2022/05/31 19:22:50;;;;;;;4.13;2.67;;;;;;;14.66;61.84;100525.00;5018788;28;20492;-82
2022/05/31 19:25:21;;;;;;;3.78;3.38;;;;;;;14.75;64.78;100529.19;5018723;28;20056;-82
2022/05/31 19:27:47;;;;;;;3.75;2.70;;;;;;;14.71;65.79;100527.09;5019320;28;20519;-83
2022/05/31 19:30:17;;;;;;;5.47;3.10;;;;;;;14.62;66.45;100523.78;5018745;28;20052;-84
2022/05/31 19:32:47;;;;;;;3.90;3.00;;;;;;;14.69;65.59;100527.28;5018270;28;20057;-80
2022/05/31 19:35:16;;;;;;;3.92;3.10;;;;;;;14.59;66.35;100539.94;5016159;28;20049;-81
2022/05/31 19:37:43;;;;;;;3.58;3.28;;;;;;;14.65;66.93;100536.56;5017100;28;20567;-81
2022/05/31 19:40:12;;;;;;;4.22;3.05;;;;;;;14.59;67.35;100553.94;5016271;28;20060;-80
2022/05/31 19:42:41;;;;;;;5.93;3.45;;;;;;;14.53;69.06;100553.84;5017966;28;20075;-80
2022/05/31 19:45:09;;;;;;;6.05;4.20;;;;;;;14.42;69.73;100567.47;5019370;28;20042;-79
2022/05/31 19:47:36;;;;;;;4.68;3.97;;;;;;;14.26;70.98;100569.25;5012620;28;20386;-79
2022/05/31 19:50:04;;;;;;;5.97;3.70;;;;;;;14.13;70.90;100557.72;5008402;28;20072;-82
2022/05/31 19:52:33;;;;;;;5.78;3.97;;;;;;;14.03;72.00;100552.72;5014720;28;20053;-80
2022/05/31 19:55:03;;;;;;;5.28;3.55;;;;;;;13.81;72.54;100558.84;5017938;28;20507;-81
2022/05/31 19:57:33;;;;;;;4.30;3.53;;;;;;;13.71;72.67;100558.28;5017213;28;20045;-81
2022/05/31 20:00:20;;;;;;;6.63;4.03;;;;;;;13.66;73.94;100565.91;5017506;28;20057;-82
2022/05/31 20:02:56;;;;;;;4.65;3.50;;;;;;;13.61;73.78;100564.63;4998036;28;20046;-83
2022/05/31 20:05:23;;;;;;;4.10;3.63;;;;;;;13.53;73.64;100554.19;4999434;28;20157;-81
2022/05/31 20:07:54;;;;;;;5.63;3.80;;;;;;;13.47;73.12;100554.06;5015131;28;20502;-81
2022/05/31 20:10:27;;;;;;;7.97;3.85;;;;;;;13.34;74.28;100538.06;5020492;28;20116;-80
2022/05/31 20:12:57;;;;;;;4.47;3.65;;;;;;;13.29;75.25;100559.59;5018820;28;20050;-79
2022/05/31 20:15:29;;;;;;;6.55;3.90;;;;;;;13.20;75.48;100572.00;5021084;28;20073;-80
2022/05/31 20:18:21;;;;;;;5.50;3.70;;;;;;;13.14;75.96;100574.47;5012068;28;20046;-80
2022/05/31 20:20:52;;;;;;;6.70;4.38;;;;;;;13.06;77.91;100606.06;5001734;28;20382;-79
2022/05/31 20:23:19;;;;;;;6.20;4.43;;;;;;;13.02;76.45;100604.75;5001264;28;20496;-81
2022/05/31 20:25:46;;;;;;;7.00;4.90;;;;;;;13.05;76.89;100599.16;5001156;28;20085;-80
2022/05/31 20:28:20;;;;;;;7.43;4.38;;;;;;;12.87;78.28;100602.03;5001206;28;20772;-82
2022/05/31 20:30:48;;;;;;;6.03;4.68;;;;;;;12.83;77.75;100609.44;5001865;28;20133;-81
2022/05/31 20:33:33;;;;;;;7.65;4.55;;;;;;;12.83;78.54;100616.50;5000235;28;20058;-80
2022/05/31 20:39:18;;;;;;;5.43;4.40;;;;;;;12.81;77.76;100607.97;4980000;28;20046;-80
2022/05/31 20:42:00;;;;;;;6.38;5.10;;;;;;;12.75;79.54;100604.25;4979898;28;20089;-82
2022/05/31 20:44:32;;;;;;;8.27;4.47;;;;;;;12.77;79.90;100618.00;5012895;28;20049;-80
2022/05/31 20:47:01;;;;;;;6.55;4.90;;;;;;;12.78;79.76;100608.31;5018887;28;20049;-82
2022/05/31 20:49:29;;;;;;;6.72;5.30;;;;;;;12.73;79.91;100610.66;5018733;28;20050;-81
2022/05/31 20:51:57;;;;;;;8.93;5.63;;;;;;;12.76;81.04;100621.59;5011885;28;20047;-80
2022/05/31 20:54:50;;;;;;;6.88;5.00;;;;;;;12.76;81.04;100621.59;5003477;28;20050;-80
2022/05/31 21:00:27;;;;;;;6.75;5.28;;;;;;;12.95;80.25;100629.09;5000497;28;20046;-81
2022/05/31 21:03:27;;;;;;;8.57;5.10;;;;;;;12.98;80.97;100635.81;5004007;28;20042;-81
2022/05/31 21:05:54;;;;;;;6.03;5.00;;;;;;;13.02;79.87;100646.78;5003515;28;20132;-80
2022/05/31 21:11:43;;;;;;;6.00;4.78;;;;;;;13.02;79.51;100626.59;4999491;28;20058;-82
2022/05/31 21:21:16;;;;;;;8.57;5.38;;;;;;;13.07;77.84;100662.84;4769232;29;20147;-84
2022/05/31 21:23:49;;;;;;;;;;;;;;;13.01;77.77;100680.13;4878420;29;20425;-83
2022/05/31 21:29:06;;;;;;;7.45;5.57;;;;;;;12.83;79.99;100687.41;4994942;28;20444;-83
2022/05/31 21:31:35;;;;;;;7.55;6.32;;;;;;;12.64;80.70;100686.00;4999554;28;20121;-84
2022/05/31 21:34:24;;;;;;;9.70;6.90;;;;;;;12.74;81.59;100699.75;4998588;28;20050;-83
2022/05/31 21:37:02;;;;;;;9.60;7.90;;;;;;;12.69;81.92;100699.44;5002014;28;20137;-83
2022/05/31 21:42:28;;;;;;;9.63;7.85;;;;;;;12.61;83.67;100673.19;5001885;28;20061;-81
2022/05/31 21:44:55;;;;;;;9.82;8.38;;;;;;;12.65;82.98;100664.00;5002596;28;20248;-84